Time;durP1;ratioP1;P1;durP2;ratioP2;P2;SDS_P1;SDS_P2;PMS_P1;PMS_P2;Temp;Humidity;BMP_temperature;BMP_pressure;BME280_temperature;BME280_humidity;BME280_pressure;Samples;Min_cycle;Max_cycle;Signal;HPM_P1;HPM_P2
2021/08/30 00:00:52;;;;;;;10.00;8.93;;;;;;;11.81;100.00;95562.28;5026887;28;20175;-80
2021/08/30 00:03:17;;;;;;;9.70;8.70;;;;;;;11.85;100.00;95560.19;5026295;28;20206;-81
2021/08/30 00:05:42;;;;;;;11.37;10.13;;;;;;;11.81;100.00;95562.28;5023585;28;20217;-81
2021/08/30 00:08:08;;;;;;;10.60;9.70;;;;;;;11.80;100.00;95560.66;5012656;28;20211;-80
2021/08/30 00:10:33;;;;;;;8.67;7.87;;;;;;;11.84;100.00;95558.56;5012692;28;20186;-80
2021/08/30 00:12:58;;;;;;;9.30;8.37;;;;;;;11.84;100.00;95556.78;5021855;28;20189;-80
2021/08/30 00:15:24;;;;;;;9.47;8.63;;;;;;;11.82;100.00;95555.28;5027701;28;20214;-80
2021/08/30 00:17:51;;;;;;;9.83;8.87;;;;;;;11.83;100.00;95551.72;5026621;28;20244;-79
2021/08/30 00:20:19;;;;;;;10.27;9.37;;;;;;;11.83;100.00;95555.13;5027145;28;20183;-80
2021/08/30 00:22:45;;;;;;;8.67;7.87;;;;;;;11.78;100.00;95544.34;5026057;28;20194;-80
2021/08/30 00:25:11;;;;;;;8.37;7.57;;;;;;;11.86;100.00;95549.63;5027271;28;20222;-80
2021/08/30 00:27:36;;;;;;;9.20;8.30;;;;;;;11.87;100.00;95543.44;5025539;28;20257;-80
2021/08/30 00:30:03;;;;;;;8.97;8.17;;;;;;;11.84;100.00;95550.75;5028279;28;20178;-79
2021/08/30 00:32:29;;;;;;;8.73;7.43;;;;;;;11.84;100.00;95540.34;5007979;28;20182;-79
2021/08/30 00:34:54;;;;;;;8.83;8.03;;;;;;;11.82;100.00;95543.09;5024615;28;20650;-81
2021/08/30 00:37:19;;;;;;;8.63;7.83;;;;;;;11.84;100.00;95541.16;5023338;28;20237;-80
2021/08/30 00:39:46;;;;;;;9.37;8.47;;;;;;;11.83;100.00;95546.50;5044063;28;20670;-79
2021/08/30 00:42:12;;;;;;;9.13;8.33;;;;;;;11.85;100.00;95549.78;5030752;28;20198;-79
2021/08/30 00:44:38;;;;;;;9.53;8.63;;;;;;;11.88;100.00;95539.06;5045210;28;20186;-81
2021/08/30 00:47:03;;;;;;;9.97;8.97;;;;;;;11.86;100.00;95546.22;5060550;28;20250;-80
2021/08/30 00:49:29;;;;;;;10.27;9.33;;;;;;;11.83;100.00;95547.31;5043185;28;20686;-80
2021/08/30 00:51:55;;;;;;;8.83;7.93;;;;;;;11.91;100.00;95534.34;5046881;28;20179;-81
2021/08/30 00:54:21;;;;;;;8.93;7.87;;;;;;;11.88;100.00;95547.69;5058713;28;20170;-79
2021/08/30 00:56:47;;;;;;;9.23;8.20;;;;;;;11.81;100.00;95543.25;5010481;28;20201;-80
2021/08/30 00:59:12;;;;;;;8.63;7.93;;;;;;;11.81;100.00;95545.84;5042786;28;20198;-80
2021/08/30 01:01:38;;;;;;;8.67;7.53;;;;;;;11.84;100.00;95540.34;5025979;28;20181;-81
2021/08/30 01:04:06;;;;;;;9.30;8.43;;;;;;;11.83;100.00;95542.13;5030003;28;20178;-81
2021/08/30 01:06:44;;;;;;;9.37;8.47;;;;;;;11.81;100.00;95536.25;5028949;28;20663;-81
2021/08/30 01:09:23;;;;;;;8.63;7.77;;;;;;;11.86;100.00;95535.81;5027612;28;20213;-79
2021/08/30 01:11:56;;;;;;;10.10;9.10;;;;;;;11.80;100.00;95539.03;5044364;28;20170;-81
2021/08/30 01:14:23;;;;;;;10.43;9.43;;;;;;;11.82;100.00;95537.06;5025859;28;20186;-80
2021/08/30 01:16:49;;;;;;;11.00;9.50;;;;;;;11.88;100.00;95526.88;5026651;28;20181;-81
2021/08/30 01:19:18;;;;;;;10.33;9.43;;;;;;;11.87;100.00;95522.63;5025302;28;20198;-79
2021/08/30 01:21:44;;;;;;;10.83;9.57;;;;;;;11.85;100.00;95515.97;5025662;28;20635;-81
2021/08/30 01:24:12;;;;;;;9.47;8.47;;;;;;;11.86;100.00;95522.78;5028678;28;20181;-81
2021/08/30 01:26:49;;;;;;;9.50;8.60;;;;;;;11.87;100.00;95524.44;5028199;28;20190;-81
2021/08/30 01:29:23;;;;;;;8.87;8.07;;;;;;;11.89;100.00;95525.06;5044509;28;20194;-79
2021/08/30 01:32:03;;;;;;;8.83;7.93;;;;;;;11.83;100.00;95525.69;5059726;28;20209;-80
2021/08/30 01:34:29;;;;;;;9.60;8.60;;;;;;;11.82;100.00;95524.06;5029570;28;20202;-80
2021/08/30 01:36:55;;;;;;;9.50;8.70;;;;;;;11.83;100.00;95520.47;5023931;28;20168;-81
2021/08/30 01:39:20;;;;;;;9.07;8.17;;;;;;;11.85;100.00;95526.38;5028556;28;20217;-81
2021/08/30 01:41:46;;;;;;;10.00;9.00;;;;;;;11.81;100.00;95518.03;5027276;28;20202;-80
2021/08/30 01:44:12;;;;;;;8.77;7.97;;;;;;;11.84;100.00;95517.75;5026608;28;20643;-80
2021/08/30 01:46:38;;;;;;;9.43;8.53;;;;;;;11.83;100.00;95525.69;5025864;28;20597;-81
2021/08/30 01:49:05;;;;;;;9.40;8.50;;;;;;;11.81;100.00;95517.22;5010725;28;20222;-81
2021/08/30 01:51:30;;;;;;;10.43;8.50;;;;;;;11.83;100.00;95510.06;5025754;28;20186;-81
2021/08/30 01:53:57;;;;;;;9.53;8.63;;;;;;;11.78;100.00;95517.53;5026901;28;20183;-81
2021/08/30 01:56:26;;;;;;;9.60;8.70;;;;;;;11.82;100.00;95511.06;5044243;28;20183;-79
2021/08/30 02:01:36;;;;;;;10.07;8.87;;;;;;;11.79;100.00;95509.56;5028229;28;20702;-81
2021/08/30 02:04:02;;;;;;;9.17;8.27;;;;;;;11.79;100.00;95509.56;5027200;28;20183;-81
2021/08/30 02:06:28;;;;;;;10.30;9.20;;;;;;;11.76;100.00;95509.88;5025694;28;20250;-81
2021/08/30 02:08:54;;;;;;;8.03;7.27;;;;;;;11.75;100.00;95513.44;5027224;28;20242;-81
2021/08/30 02:11:26;;;;;;;7.93;7.13;;;;;;;11.73;100.00;95506.75;5027023;28;20197;-79
2021/08/30 02:13:51;;;;;;;7.57;6.93;;;;;;;11.75;100.00;95502.22;5027916;28;20167;-81
2021/08/30 02:16:17;;;;;;;7.67;6.97;;;;;;;11.74;100.00;95508.38;5026088;28;20167;-81
2021/08/30 02:18:53;;;;;;;7.63;6.93;;;;;;;11.77;100.00;95506.31;5009682;28;20203;-79
2021/08/30 02:21:23;;;;;;;6.73;6.10;;;;;;;11.75;100.00;95504.81;5025946;28;20245;-81
2021/08/30 02:24:08;;;;;;;6.70;6.10;;;;;;;11.81;100.00;95518.03;5008621;28;20190;-81
2021/08/30 02:26:47;;;;;;;7.53;6.13;;;;;;;11.85;100.00;95508.16;5040923;28;20203;-80
2021/08/30 02:29:17;;;;;;;6.67;5.97;;;;;;;11.80;100.00;95505.19;5024314;28;20210;-81
2021/08/30 02:31:47;;;;;;;7.20;6.10;;;;;;;11.80;100.00;95503.41;5022574;28;20666;-81
2021/08/30 02:34:12;;;;;;;7.30;5.77;;;;;;;11.85;100.00;95505.56;5023968;28;20594;-79
2021/08/30 02:36:38;;;;;;;6.73;5.50;;;;;;;11.86;100.00;95499.38;5008169;28;20186;-80
2021/08/30 02:39:04;;;;;;;6.20;5.70;;;;;;;11.78;100.00;95497.53;5023469;28;20222;-80
2021/08/30 02:41:30;;;;;;;6.43;5.70;;;;;;;11.80;100.00;95498.22;5024689;28;20559;-80
2021/08/30 02:43:56;;;;;;;6.67;5.83;;;;;;;11.75;100.00;95495.25;5008079;28;20183;-81
2021/08/30 02:46:21;;;;;;;6.30;5.70;;;;;;;11.79;100.00;95493.94;5024653;28;20210;-81
2021/08/30 02:48:47;;;;;;;6.33;5.73;;;;;;;11.77;100.00;95502.88;5024290;28;20211;-81
2021/08/30 02:51:12;;;;;;;6.57;5.87;;;;;;;11.77;100.00;95492.47;5023768;28;20179;-80
2021/08/30 02:53:38;;;;;;;7.17;5.60;;;;;;;11.75;100.00;95494.41;5024720;28;20171;-81
2021/08/30 02:56:04;;;;;;;7.03;5.23;;;;;;;11.82;100.00;95498.84;5025519;28;20178;-80
2021/08/30 02:58:29;;;;;;;6.87;6.17;;;;;;;11.77;100.00;95497.69;5023348;28;20195;-80
2021/08/30 03:00:56;;;;;;;9.60;6.87;;;;;;;11.80;100.00;95506.00;5023851;28;20171;-81
2021/08/30 03:03:24;;;;;;;6.70;6.10;;;;;;;11.79;100.00;95503.53;5023678;28;20183;-80
2021/08/30 03:05:51;;;;;;;7.50;6.80;;;;;;;11.74;100.00;95505.78;5006578;28;20194;-80
2021/08/30 03:08:16;;;;;;;7.40;6.63;;;;;;;11.74;100.00;95506.59;5007004;28;20229;-81
2021/08/30 03:10:43;;;;;;;6.80;6.20;;;;;;;11.74;100.00;95501.38;5024284;28;20206;-80
2021/08/30 03:13:09;;;;;;;6.40;5.80;;;;;;;11.76;100.00;95499.47;5021379;28;20198;-81
2021/08/30 03:15:34;;;;;;;5.93;4.90;;;;;;;11.77;100.00;95502.88;5027112;28;20171;-80
2021/08/30 03:18:02;;;;;;;4.63;4.03;;;;;;;11.75;100.00;95494.41;5007144;28;20578;-80
2021/08/30 03:20:28;;;;;;;4.53;3.87;;;;;;;11.72;100.00;95507.72;5024929;28;20251;-80
2021/08/30 03:22:56;;;;;;;4.77;4.37;;;;;;;11.77;100.00;95495.09;5022670;28;20281;-81
2021/08/30 03:25:24;;;;;;;5.53;5.03;;;;;;;11.74;100.00;95503.19;5021289;28;20189;-80
2021/08/30 03:27:50;;;;;;;5.30;4.80;;;;;;;11.72;100.00;95502.53;5019006;28;20218;-80
2021/08/30 03:30:16;;;;;;;5.20;4.70;;;;;;;11.75;100.00;95494.41;5023989;28;20187;-81
2021/08/30 03:32:42;;;;;;;5.97;5.47;;;;;;;11.71;100.00;95496.50;5023828;28;20210;-81
2021/08/30 03:35:12;;;;;;;5.70;5.20;;;;;;;11.74;100.00;95497.97;5023050;28;20206;-79
2021/08/30 03:37:39;;;;;;;6.03;5.53;;;;;;;11.84;100.00;95496.94;5026176;28;20219;-81
2021/08/30 03:40:05;;;;;;;11.90;7.13;;;;;;;11.74;100.00;95495.38;5025255;28;20190;-80
2021/08/30 03:42:31;;;;;;;13.50;7.53;;;;;;;11.73;100.00;95493.75;5025257;28;20183;-80
2021/08/30 03:44:57;;;;;;;18.20;8.77;;;;;;;11.77;100.00;95500.28;5024851;28;20190;-80
2021/08/30 03:47:23;;;;;;;10.50;7.30;;;;;;;11.83;100.00;95495.28;5024421;28;20207;-81
2021/08/30 03:49:48;;;;;;;8.87;8.07;;;;;;;11.80;100.00;95494.78;5022472;28;20403;-80
2021/08/30 03:52:14;;;;;;;9.97;8.70;;;;;;;11.88;100.00;95497.44;5021394;28;20194;-81
2021/08/30 03:54:40;;;;;;;9.40;8.40;;;;;;;11.87;100.00;95490.59;5023359;28;20179;-81
2021/08/30 03:57:05;;;;;;;10.00;9.00;;;;;;;11.91;100.00;95491.91;5023020;28;20183;-80
2021/08/30 03:59:35;;;;;;;14.93;10.27;;;;;;;11.85;100.00;95502.97;5015286;28;20203;-80
2021/08/30 04:02:00;;;;;;;11.53;10.33;;;;;;;11.94;100.00;95488.19;5011851;28;20179;-80
2021/08/30 04:04:26;;;;;;;15.83;11.87;;;;;;;11.87;100.00;95486.22;4996726;28;20175;-81
2021/08/30 04:06:53;;;;;;;13.57;11.33;;;;;;;11.90;100.00;95490.28;5016671;28;20207;-80
2021/08/30 04:09:20;;;;;;;12.90;11.60;;;;;;;11.92;100.00;95488.31;5004778;28;20680;-82
2021/08/30 04:11:46;;;;;;;16.20;11.73;;;;;;;11.91;100.00;95497.91;5026886;28;20197;-81
2021/08/30 04:14:12;;;;;;;15.13;13.07;;;;;;;11.97;100.00;95493.06;5022203;28;20262;-80
2021/08/30 04:16:39;;;;;;;25.17;15.17;;;;;;;11.91;100.00;95495.31;5016480;28;20742;-79
2021/08/30 04:19:04;;;;;;;17.50;14.47;;;;;;;11.97;100.00;95490.47;5017552;28;20197;-80
2021/08/30 04:21:29;;;;;;;17.93;14.20;;;;;;;11.95;100.00;95488.03;4998016;28;20640;-81
2021/08/30 04:23:55;;;;;;;36.33;16.03;;;;;;;11.94;100.00;95491.59;4999309;28;20634;-78
2021/08/30 04:26:20;;;;;;;20.40;15.07;;;;;;;11.95;100.00;95495.84;5030095;28;20666;-79
2021/08/30 04:28:45;;;;;;;31.93;15.90;;;;;;;11.93;100.00;95489.97;5031206;28;20650;-80
2021/08/30 04:31:11;;;;;;;17.43;15.57;;;;;;;11.94;100.00;95489.00;5030413;28;20186;-79
2021/08/30 04:33:36;;;;;;;17.27;14.40;;;;;;;11.91;100.00;95502.31;5030635;28;20193;-79
2021/08/30 04:36:02;;;;;;;14.63;11.93;;;;;;;11.98;100.00;95494.69;5030684;28;20202;-78
2021/08/30 04:38:27;;;;;;;15.40;13.37;;;;;;;11.97;100.00;95501.69;5029372;28;20194;-79
2021/08/30 04:40:52;;;;;;;15.53;13.90;;;;;;;11.94;100.00;95501.19;5029762;28;20190;-78
2021/08/30 04:43:18;;;;;;;15.40;13.43;;;;;;;11.98;100.00;95502.50;5030147;28;20185;-79
2021/08/30 04:45:43;;;;;;;19.03;14.10;;;;;;;11.93;100.00;95507.34;5031448;28;20550;-80
2021/08/30 04:48:08;;;;;;;18.63;16.73;;;;;;;11.82;100.00;95511.88;5038477;28;20287;-79
2021/08/30 04:50:34;;;;;;;17.57;15.10;;;;;;;11.92;100.00;95516.94;5037904;28;20190;-79
2021/08/30 04:52:59;;;;;;;60.23;17.90;;;;;;;11.85;100.00;95510.75;5038217;28;20174;-79
2021/08/30 04:55:25;;;;;;;20.37;17.67;;;;;;;11.83;100.00;95516.09;5038354;28;20179;-78
2021/08/30 04:57:50;;;;;;;19.17;17.10;;;;;;;11.81;100.00;95512.84;5044826;28;20204;-80
2021/08/30 05:00:15;;;;;;;20.67;17.27;;;;;;;11.83;100.00;95520.47;5078974;28;20180;-80
2021/08/30 05:02:41;;;;;;;17.10;15.30;;;;;;;11.82;100.00;95516.25;5077682;28;20195;-78
2021/08/30 05:05:06;;;;;;;19.10;14.97;;;;;;;11.83;100.00;95520.47;5077412;28;20185;-80
2021/08/30 05:07:31;;;;;;;35.37;17.03;;;;;;;11.82;100.00;95513.66;5060953;28;20193;-79
2021/08/30 05:09:57;;;;;;;28.37;17.13;;;;;;;11.87;100.00;95522.63;5061284;28;20193;-79
2021/08/30 05:12:26;;;;;;;255.17;26.77;;;;;;;11.82;100.00;95526.66;5060882;28;20712;-79
2021/08/30 05:14:51;;;;;;;21.60;17.70;;;;;;;11.82;100.00;95524.06;5063130;28;20173;-78
2021/08/30 05:17:16;;;;;;;16.83;15.00;;;;;;;11.87;100.00;95527.84;5038574;28;20182;-79
2021/08/30 05:19:42;;;;;;;18.10;15.80;;;;;;;11.89;100.00;95528.50;5037231;28;20569;-80
2021/08/30 05:22:07;;;;;;;18.20;16.20;;;;;;;11.86;100.00;95521.00;5037133;28;20174;-80
2021/08/30 05:24:32;;;;;;;18.37;16.37;;;;;;;11.92;100.00;95522.16;5036108;28;20186;-79
2021/08/30 05:26:57;;;;;;;19.93;16.93;;;;;;;11.85;100.00;95524.59;5035511;28;20194;-78
2021/08/30 05:29:23;;;;;;;19.47;16.80;;;;;;;11.86;100.00;95525.41;5034555;28;20233;-79
2021/08/30 05:31:48;;;;;;;20.47;16.67;;;;;;;11.86;100.00;95521.00;5036551;28;20210;-79
2021/08/30 05:34:13;;;;;;;20.80;17.57;;;;;;;11.86;100.00;95522.78;5035950;28;20285;-78
2021/08/30 05:36:39;;;;;;;20.53;17.70;;;;;;;11.83;100.00;95523.09;5035981;28;20181;-80
2021/08/30 05:39:04;;;;;;;27.87;23.00;;;;;;;11.85;100.00;95528.97;5060861;28;20705;-79
2021/08/30 05:41:30;;;;;;;22.00;18.83;;;;;;;11.82;100.00;95524.06;5067894;28;20185;-79
2021/08/30 05:43:55;;;;;;;21.07;16.80;;;;;;;11.84;100.00;95524.75;5055816;28;20213;-80
2021/08/30 05:46:20;;;;;;;23.53;18.37;;;;;;;11.83;100.00;95529.09;5044167;28;20198;-80
2021/08/30 05:48:47;;;;;;;24.27;19.57;;;;;;;11.86;100.00;95530.59;5041630;28;20202;-81
2021/08/30 05:51:13;;;;;;;22.80;18.80;;;;;;;11.88;100.00;95529.47;5040695;28;20182;-79
2021/08/30 05:53:39;;;;;;;20.03;17.57;;;;;;;11.91;100.00;95530.94;5047065;28;20175;-78
2021/08/30 05:56:04;;;;;;;18.53;15.57;;;;;;;11.94;100.00;95537.63;5028470;28;20206;-78
2021/08/30 05:58:30;;;;;;;24.53;15.70;;;;;;;11.91;100.00;95538.75;5026394;28;20549;-80
2021/08/30 06:00:55;;;;;;;18.53;15.17;;;;;;;11.92;100.00;95540.38;5042231;28;20541;-79
2021/08/30 06:03:21;;;;;;;36.10;17.37;;;;;;;11.98;100.00;95544.16;5040281;28;20170;-78
2021/08/30 06:05:46;;;;;;;23.07;16.97;;;;;;;12.03;100.00;95534.91;5041730;28;20246;-79
2021/08/30 06:08:11;;;;;;;19.80;17.60;;;;;;;12.09;100.00;95539.47;5042162;28;20206;-79
2021/08/30 06:10:36;;;;;;;23.30;17.27;;;;;;;12.05;100.00;95540.75;5042869;28;20174;-80
2021/08/30 06:13:02;;;;;;;20.63;17.50;;;;;;;12.07;100.00;95536.22;5041223;28;20183;-79
2021/08/30 06:15:27;;;;;;;21.23;16.20;;;;;;;12.16;100.00;95539.66;5042828;28;20182;-77
2021/08/30 06:17:53;;;;;;;18.17;15.77;;;;;;;12.12;100.00;95541.78;5041557;28;20191;-80
2021/08/30 06:20:18;;;;;;;17.87;15.90;;;;;;;12.19;100.00;95547.16;5041581;28;20202;-80
2021/08/30 06:22:43;;;;;;;19.93;17.30;;;;;;;12.25;100.00;95545.72;5040435;28;20618;-76
2021/08/30 06:25:09;;;;;;;22.17;16.93;;;;;;;12.34;100.00;95542.16;5040344;28;20186;-79
2021/08/30 06:27:35;;;;;;;20.50;16.10;;;;;;;12.36;100.00;95553.22;5041944;28;20257;-78
2021/08/30 06:30:00;;;;;;;18.63;15.73;;;;;;;12.37;100.00;95547.88;5040994;28;20186;-80
2021/08/30 06:32:25;;;;;;;20.00;16.10;;;;;;;12.41;100.00;95538.75;5040813;28;20202;-79
2021/08/30 06:34:51;;;;;;;20.80;16.27;;;;;;;12.42;100.00;95543.00;5040361;28;20174;-79
2021/08/30 06:37:16;;;;;;;18.97;16.73;;;;;;;12.43;100.00;95559.44;5042298;28;20186;-78
2021/08/30 06:39:42;;;;;;;21.67;17.97;;;;;;;12.37;100.00;95550.50;5040098;28;20185;-79
2021/08/30 06:42:07;;;;;;;20.97;18.23;;;;;;;12.36;100.00;95553.22;5038636;28;20541;-80
2021/08/30 06:44:33;;;;;;;22.40;20.03;;;;;;;12.29;100.00;95553.06;5039433;28;20643;-79
2021/08/30 06:46:58;;;;;;;20.57;18.27;;;;;;;12.25;100.00;95554.34;5022890;28;20233;-79
2021/08/30 06:49:24;;;;;;;23.17;19.23;;;;;;;12.24;100.00;95555.31;5040722;28;20682;-78
2021/08/30 06:51:49;;;;;;;21.17;18.03;;;;;;;12.25;100.00;95550.91;5039032;28;20182;-79
2021/08/30 06:54:14;;;;;;;21.10;18.00;;;;;;;12.29;100.00;95549.66;5039722;28;20185;-80
2021/08/30 06:56:40;;;;;;;37.43;17.83;;;;;;;12.27;100.00;95548.97;5038984;28;20182;-80
2021/08/30 06:59:05;;;;;;;25.37;20.23;;;;;;;12.20;100.00;95548.81;5039005;28;20198;-79
2021/08/30 07:01:30;;;;;;;25.47;18.70;;;;;;;12.19;100.00;95557.56;5038616;28;20186;-79
2021/08/30 07:03:56;;;;;;;25.03;20.23;;;;;;;12.26;100.00;95549.94;5037487;28;20270;-80
2021/08/30 07:06:21;;;;;;;25.20;21.13;;;;;;;12.22;100.00;95553.84;5039018;28;20209;-79
2021/08/30 07:08:46;;;;;;;23.07;18.37;;;;;;;12.23;100.00;95545.88;5038748;28;20295;-80
2021/08/30 07:11:12;;;;;;;22.20;19.13;;;;;;;12.22;100.00;95552.06;5038366;28;20178;-79
2021/08/30 07:13:37;;;;;;;22.23;19.10;;;;;;;12.25;100.00;95556.13;5039432;28;20201;-79
2021/08/30 07:16:02;;;;;;;25.13;19.87;;;;;;;12.18;100.00;95556.75;5038627;28;20698;-80
2021/08/30 07:18:28;;;;;;;22.77;19.10;;;;;;;12.24;100.00;95555.31;5038698;28;20202;-80
2021/08/30 07:20:53;;;;;;;23.03;19.37;;;;;;;12.27;100.00;95557.59;5038373;28;20178;-78
2021/08/30 07:23:18;;;;;;;23.63;19.00;;;;;;;12.24;100.00;95559.72;5037970;28;20175;-81
2021/08/30 07:25:44;;;;;;;21.20;17.97;;;;;;;12.28;100.00;95558.41;5038369;28;20744;-80
2021/08/30 07:28:09;;;;;;;24.03;19.67;;;;;;;12.18;100.00;95564.56;5038915;28;20740;-79
2021/08/30 07:30:35;;;;;;;23.93;19.23;;;;;;;12.26;100.00;95558.56;5038584;28;20265;-80
2021/08/30 07:33:00;;;;;;;25.77;20.27;;;;;;;12.22;100.00;95559.06;5037659;28;20229;-79
2021/08/30 07:35:27;;;;;;;24.20;18.97;;;;;;;12.18;100.00;95567.16;5038032;28;20183;-79
2021/08/30 07:37:53;;;;;;;21.53;18.00;;;;;;;12.19;100.00;95568.81;5037711;28;20247;-80
2021/08/30 07:40:18;;;;;;;24.27;19.13;;;;;;;12.16;100.00;95569.09;5038690;28;20644;-79
2021/08/30 07:42:43;;;;;;;23.77;19.80;;;;;;;12.15;100.00;95567.47;5051624;28;20178;-78
2021/08/30 07:45:09;;;;;;;23.07;19.60;;;;;;;12.22;100.00;95562.47;5046427;28;20179;-79
2021/08/30 07:47:34;;;;;;;25.53;20.00;;;;;;;12.26;100.00;95574.19;5027254;28;20233;-80
2021/08/30 07:50:00;;;;;;;23.80;20.83;;;;;;;12.24;100.00;95573.53;5043807;28;20209;-80
2021/08/30 07:52:26;;;;;;;24.50;19.70;;;;;;;12.34;100.00;95578.63;5042189;28;20174;-81
2021/08/30 07:54:52;;;;;;;27.77;21.43;;;;;;;12.27;100.00;95568.00;5042495;28;20209;-81
2021/08/30 07:57:17;;;;;;;29.37;20.87;;;;;;;12.25;100.00;95584.75;5041869;28;20238;-79
2021/08/30 07:59:43;;;;;;;26.73;20.10;;;;;;;12.32;100.00;95575.34;5040878;28;20596;-80
2021/08/30 08:02:08;;;;;;;27.70;19.10;;;;;;;12.35;100.00;95585.44;5038497;28;20171;-81
2021/08/30 08:04:33;;;;;;;23.60;18.77;;;;;;;12.26;100.00;95584.59;5040564;28;20179;-80
2021/08/30 08:06:59;;;;;;;32.37;22.67;;;;;;;12.15;100.00;95583.09;5040057;28;20682;-79
2021/08/30 08:09:24;;;;;;;26.97;20.83;;;;;;;12.24;100.00;95589.16;5039834;28;20288;-81
2021/08/30 08:11:49;;;;;;;25.73;21.07;;;;;;;12.28;100.00;95587.03;5039498;28;20186;-81
2021/08/30 08:14:14;;;;;;;26.53;20.70;;;;;;;12.28;100.00;95594.84;5023596;28;20185;-78
2021/08/30 08:16:40;;;;;;;29.30;23.07;;;;;;;12.23;100.00;95594.53;5041411;28;20191;-80
2021/08/30 08:19:06;;;;;;;26.43;20.43;;;;;;;12.22;100.00;95601.53;5039373;28;20202;-80
2021/08/30 08:21:31;;;;;;;26.33;19.87;;;;;;;12.31;100.00;95602.38;5038825;28;20242;-79
2021/08/30 08:23:58;;;;;;;25.30;20.70;;;;;;;12.32;100.00;95601.41;5039970;28;20537;-80
2021/08/30 08:26:23;;;;;;;27.97;20.57;;;;;;;12.38;100.00;95613.81;5038710;28;20197;-80
2021/08/30 08:28:48;;;;;;;25.17;21.37;;;;;;;12.46;100.00;95611.22;5038499;28;20210;-79
2021/08/30 08:31:14;;;;;;;27.03;21.57;;;;;;;12.62;100.00;95607.84;5037808;28;20178;-79
2021/08/30 08:33:39;;;;;;;27.13;21.47;;;;;;;12.72;100.00;95601.53;5040847;28;20182;-79
2021/08/30 08:36:04;;;;;;;26.23;22.07;;;;;;;12.74;100.00;95610.00;5045587;28;20665;-80
2021/08/30 08:38:30;;;;;;;25.27;22.27;;;;;;;12.71;100.00;95612.91;5046040;28;20190;-78
2021/08/30 08:40:56;;;;;;;28.17;22.47;;;;;;;12.69;100.00;95617.47;5047214;28;20179;-80
2021/08/30 08:43:21;;;;;;;26.97;21.93;;;;;;;12.66;100.00;95614.38;5038624;28;20178;-79
2021/08/30 08:45:48;;;;;;;27.00;22.17;;;;;;;12.65;100.00;95613.56;5038780;28;20256;-79
2021/08/30 08:48:15;;;;;;;25.37;22.03;;;;;;;12.65;100.00;95615.34;5038544;28;20202;-80
2021/08/30 08:50:40;;;;;;;31.73;22.23;;;;;;;12.54;100.00;95613.84;5025427;28;20179;-78
2021/08/30 08:53:06;;;;;;;26.17;21.17;;;;;;;12.59;100.00;95613.38;5040571;28;20233;-79
2021/08/30 08:55:36;;;;;;;24.77;21.27;;;;;;;12.51;100.00;95624.56;5041767;28;20178;-80
2021/08/30 08:58:07;;;;;;;27.70;23.13;;;;;;;12.58;100.00;95619.56;5042589;28;20190;-81
2021/08/30 09:00:32;;;;;;;27.37;21.03;;;;;;;12.54;100.00;95626.03;5042294;28;20236;-79
2021/08/30 09:02:57;;;;;;;27.50;22.17;;;;;;;12.55;100.00;95625.09;5040980;28;20186;-80
2021/08/30 09:05:24;;;;;;;26.67;22.07;;;;;;;12.52;100.00;95625.41;5042504;28;20175;-79
2021/08/30 09:07:49;;;;;;;27.80;21.67;;;;;;;12.46;100.00;95632.06;5043017;28;20206;-81
2021/08/30 09:10:17;;;;;;;28.63;22.37;;;;;;;12.53;100.00;95630.44;5042563;28;20183;-79
2021/08/30 09:12:43;;;;;;;27.97;22.07;;;;;;;12.62;100.00;95631.28;5041473;28;20235;-79
2021/08/30 09:15:13;;;;;;;28.47;21.70;;;;;;;12.63;100.00;95632.91;5042191;28;20197;-78
2021/08/30 09:17:52;;;;;;;28.10;21.97;;;;;;;12.61;100.00;95638.28;5041671;28;20200;-80
2021/08/30 09:20:20;;;;;;;28.30;23.03;;;;;;;12.64;100.00;95635.38;5024815;28;20268;-80
2021/08/30 09:22:45;;;;;;;27.07;21.43;;;;;;;12.64;100.00;95637.19;5023830;28;20588;-79
2021/08/30 09:25:12;;;;;;;28.47;23.47;;;;;;;12.51;100.00;95635.00;5042307;28;20182;-79
2021/08/30 09:27:39;;;;;;;29.07;22.40;;;;;;;12.64;100.00;95639.78;5024423;28;20272;-79
2021/08/30 09:30:11;;;;;;;29.17;22.97;;;;;;;12.69;100.00;95640.91;5024667;28;20194;-78
2021/08/30 09:32:36;;;;;;;29.20;22.93;;;;;;;12.63;100.00;95625.09;5040617;28;20654;-79
2021/08/30 09:35:04;;;;;;;25.90;20.93;;;;;;;12.75;100.00;95635.09;5058200;28;20178;-78
2021/08/30 09:37:31;;;;;;;29.80;21.87;;;;;;;12.88;100.00;95633.81;5032397;28;20519;-81
2021/08/30 09:40:02;;;;;;;24.23;21.53;;;;;;;12.88;100.00;95631.19;5045999;28;20182;-80
2021/08/30 09:42:28;;;;;;;28.07;21.50;;;;;;;12.99;100.00;95636.13;5044242;28;20202;-79
2021/08/30 09:45:05;;;;;;;25.53;20.80;;;;;;;13.01;99.75;95634.97;5044142;28;20182;-79
2021/08/30 09:47:30;;;;;;;27.93;21.17;;;;;;;12.83;100.00;95639.50;5027863;28;20593;-80
2021/08/30 09:49:56;;;;;;;28.17;21.87;;;;;;;12.94;100.00;95634.00;5043949;28;20206;-79
2021/08/30 09:52:22;;;;;;;25.50;20.43;;;;;;;13.00;100.00;95641.19;5042876;28;20183;-80
2021/08/30 09:54:49;;;;;;;25.87;20.80;;;;;;;12.99;99.59;95636.94;5026134;28;20254;-79
2021/08/30 09:57:14;;;;;;;24.00;20.20;;;;;;;13.06;99.78;95637.09;5042370;28;20183;-78
2021/08/30 09:59:42;;;;;;;28.03;20.53;;;;;;;13.04;99.52;95636.44;5042778;28;20558;-80
2021/08/30 10:02:10;;;;;;;27.37;21.50;;;;;;;13.17;99.27;95634.19;5039887;28;20178;-80
2021/08/30 10:04:37;;;;;;;27.80;20.60;;;;;;;13.17;99.32;95636.00;5025589;28;20198;-78
2021/08/30 10:07:03;;;;;;;26.23;21.17;;;;;;;13.38;98.71;95632.94;5041119;28;20225;-79
2021/08/30 10:09:29;;;;;;;25.53;21.07;;;;;;;13.50;98.43;95642.06;5041153;28;20221;-79
2021/08/30 10:11:55;;;;;;;27.33;21.20;;;;;;;13.51;98.43;95633.25;5024362;28;20305;-79
2021/08/30 10:14:25;;;;;;;25.57;21.33;;;;;;;13.66;98.14;95634.22;5043747;28;20190;-80
2021/08/30 10:16:51;;;;;;;26.47;20.67;;;;;;;13.63;97.54;95634.56;5024543;28;20238;-79
2021/08/30 10:19:28;;;;;;;26.50;21.30;;;;;;;13.85;96.80;95640.88;5039257;28;20690;-80
2021/08/30 10:21:53;;;;;;;27.93;20.67;;;;;;;13.90;96.15;95641.22;5022931;28;20178;-80
2021/08/30 10:24:19;;;;;;;26.03;21.10;;;;;;;14.03;95.67;95633.69;5039288;28;20178;-77
2021/08/30 10:26:46;;;;;;;23.53;19.63;;;;;;;14.06;95.23;95637.78;5038446;28;20210;-79
2021/08/30 10:29:12;;;;;;;24.33;18.77;;;;;;;13.94;95.41;95633.88;5038546;28;20210;-78
2021/08/30 10:31:51;;;;;;;23.00;19.00;;;;;;;13.80;95.82;95641.41;5037943;28;20185;-80
2021/08/30 10:34:26;;;;;;;24.47;19.77;;;;;;;13.71;96.02;95636.34;5022752;28;20612;-77
2021/08/30 10:36:52;;;;;;;25.20;18.63;;;;;;;13.61;96.87;95636.53;5039493;28;20192;-78
2021/08/30 10:39:18;;;;;;;22.83;17.37;;;;;;;13.50;96.75;95639.44;5042673;28;20206;-78
2021/08/30 10:41:44;;;;;;;21.17;18.43;;;;;;;13.25;97.91;95638.63;5029526;28;20175;-79
2021/08/30 10:44:14;;;;;;;25.90;19.90;;;;;;;13.25;98.59;95647.28;5046025;28;20194;-80
2021/08/30 10:46:46;;;;;;;24.70;19.10;;;;;;;13.06;99.78;95644.91;5046099;28;20225;-79
2021/08/30 10:49:17;;;;;;;24.67;19.70;;;;;;;13.10;100.00;95646.25;5025332;28;20690;-79
2021/08/30 10:51:43;;;;;;;24.33;19.97;;;;;;;13.13;100.00;95645.09;5037883;28;20582;-80
2021/08/30 10:54:13;;;;;;;27.97;21.37;;;;;;;13.01;100.00;95657.63;5038679;28;20178;-81
2021/08/30 10:56:39;;;;;;;25.73;20.83;;;;;;;13.14;100.00;95657.97;5021447;28;20171;-80
2021/08/30 10:59:08;;;;;;;32.23;21.60;;;;;;;13.19;100.00;95660.94;5038807;28;20197;-80
2021/08/30 11:01:35;;;;;;;31.77;21.00;;;;;;;13.23;99.70;95662.25;5037235;28;20677;-80
2021/08/30 11:04:00;;;;;;;26.77;20.53;;;;;;;13.55;98.95;95663.28;5018999;28;20181;-79
2021/08/30 11:06:26;;;;;;;24.83;20.40;;;;;;;13.91;97.96;95662.91;5037148;28;20203;-80
2021/08/30 11:08:51;;;;;;;23.50;18.77;;;;;;;13.86;96.15;95664.22;5037629;28;20237;-81
2021/08/30 11:11:19;;;;;;;22.07;18.10;;;;;;;14.02;95.90;95662.56;5032804;28;20186;-81
2021/08/30 11:14:03;;;;;;;21.13;17.37;;;;;;;13.89;95.84;95665.69;5026376;28;20189;-80